Time;durP1;ratioP1;P1;durP2;ratioP2;P2;SDS_P1;SDS_P2;PMS_P1;PMS_P2;Temp;Humidity;BMP_temperature;BMP_pressure;BME280_temperature;BME280_humidity;BME280_pressure;Samples;Min_cycle;Max_cycle;Signal;HPM_P1;HPM_P2
2023/10/15 00:01:46;;;;;;;;;47.00;38.75;;;;;17.58;45.40;98841.47;5109183;28;8907;-74
2023/10/15 00:04:15;;;;;;;;;46.00;39.75;;;;;17.59;45.35;98840.53;5109431;28;8976;-72
2023/10/15 00:06:45;;;;;;;;;45.00;37.50;;;;;17.58;45.66;98839.66;5109286;28;8839;-75
2023/10/15 00:09:14;;;;;;;;;45.25;38.25;;;;;17.58;45.59;98829.03;5109790;28;8987;-73
2023/10/15 00:11:44;;;;;;;;;48.25;39.75;;;;;17.58;45.79;98833.50;5109249;28;8863;-75
2023/10/15 00:14:13;;;;;;;;;41.00;35.75;;;;;17.56;45.72;98830.09;5108979;28;8851;-75
2023/10/15 00:16:42;;;;;;;;;42.00;35.50;;;;;17.52;45.75;98833.88;5108756;28;8948;-73
2023/10/15 00:19:12;;;;;;;;;43.75;37.75;;;;;17.53;45.93;98838.22;5108889;28;8835;-74
2023/10/15 00:21:41;;;;;;;;;41.25;35.50;;;;;17.53;45.78;98830.25;5109461;28;8870;-72
2023/10/15 00:24:11;;;;;;;;;47.00;38.25;;;;;17.39;46.43;98829.28;5151171;27;8855;-73
2023/10/15 00:26:41;;;;;;;;;44.75;38.50;;;;;17.33;46.52;98842.97;5152605;27;8863;-73
2023/10/15 00:29:09;;;;;;;;;39.50;35.00;;;;;17.37;46.38;98835.66;5152132;27;8987;-73
2023/10/15 00:31:41;;;;;;;;;43.75;38.00;;;;;17.36;46.35;98845.44;5116820;27;8836;-73
2023/10/15 00:34:12;;;;;;;;;40.25;35.75;;;;;17.41;46.44;98841.66;5116936;27;8931;-71
2023/10/15 00:36:41;;;;;;;;;39.75;35.25;;;;;17.40;46.44;98838.16;5133490;27;8820;-73
2023/10/15 00:39:20;;;;;;;;;36.75;33.00;;;;;17.26;46.64;98840.75;5134096;27;8843;-72
2023/10/15 00:41:49;;;;;;;;;35.00;31.50;;;;;17.28;46.56;98842.38;5123983;27;8848;-73
2023/10/15 00:44:17;;;;;;;;;35.25;32.00;;;;;17.18;46.85;98836.72;5113460;27;8833;-72
2023/10/15 00:46:54;;;;;;;;;38.00;32.50;;;;;17.23;46.97;98839.13;5113202;27;8854;-74
2023/10/15 00:49:25;;;;;;;;;35.50;33.00;;;;;17.24;46.90;98835.50;5112713;27;8884;-73
2023/10/15 00:51:56;;;;;;;;;32.50;31.50;;;;;17.24;46.97;98830.19;5113011;27;8958;-73
2023/10/15 00:54:26;;;;;;;;;36.25;32.75;;;;;17.27;46.84;98837.16;5113153;27;8919;-73
2023/10/15 00:56:56;;;;;;;;;33.50;31.75;;;;;17.25;46.71;98834.59;5112396;27;9637;-73
2023/10/15 00:59:43;;;;;;;;;30.40;29.60;;;;;17.13;47.40;98837.94;5094332;27;8935;-73
2023/10/15 01:02:13;;;;;;;;;34.75;31.75;;;;;17.14;47.24;98839.66;5130974;27;8845;-73
2023/10/15 01:04:43;;;;;;;;;34.00;31.50;;;;;17.13;47.32;98830.81;5112534;27;8949;-75
2023/10/15 01:07:22;;;;;;;;;37.00;32.25;;;;;17.03;47.73;98837.66;5129470;27;8838;-75
2023/10/15 01:09:52;;;;;;;;;33.00;29.00;;;;;17.07;47.40;98838.31;5112180;27;8925;-73
2023/10/15 01:12:24;;;;;;;;;35.25;32.50;;;;;16.98;47.95;98839.72;5117970;27;8812;-78
2023/10/15 01:14:53;;;;;;;;;35.50;32.00;;;;;17.00;47.72;98840.47;5151397;27;8857;-75
2023/10/15 01:17:24;;;;;;;;;31.00;30.00;;;;;16.97;47.92;98848.63;5132848;27;9916;-73
2023/10/15 01:19:53;;;;;;;;;38.50;33.25;;;;;16.97;48.11;98843.31;5132853;27;8843;-74
2023/10/15 01:22:24;;;;;;;;;27.20;27.00;;;;;16.98;47.99;98845.00;5151384;27;8839;-73
2023/10/15 01:24:54;;;;;;;;;40.40;34.20;;;;;16.97;47.94;98841.50;5132760;27;8936;-72
2023/10/15 01:27:27;;;;;;;;;33.50;31.25;;;;;16.96;48.09;98837.13;5114438;27;8874;-73
2023/10/15 01:29:58;;;;;;;;;34.25;31.75;;;;;16.93;48.12;98842.66;5150838;27;9743;-72
2023/10/15 01:32:30;;;;;;;;;33.60;31.20;;;;;16.91;48.21;98841.88;5132442;27;9117;-75
2023/10/15 01:35:01;;;;;;;;;32.80;29.60;;;;;16.89;48.19;98846.44;5131654;27;8859;-73
2023/10/15 01:37:31;;;;;;;;;31.50;30.25;;;;;16.89;48.51;98840.25;5150744;27;8905;-76
2023/10/15 01:40:24;;;;;;;;;34.50;30.25;;;;;16.83;48.71;98843.25;5114570;27;8897;-74
2023/10/15 01:42:54;;;;;;;;;33.00;30.50;;;;;16.77;48.73;98847.97;5132407;27;8823;-73
2023/10/15 01:45:31;;;;;;;;;32.80;29.60;;;;;16.76;48.71;98846.28;5150681;27;8871;-75
2023/10/15 01:48:05;;;;;;;;;36.20;32.20;;;;;16.78;48.77;98843.53;5132474;27;9604;-71
2023/10/15 01:50:42;;;;;;;;;33.25;30.50;;;;;16.83;48.53;98840.59;5132144;27;9596;-74
2023/10/15 01:53:12;;;;;;;;;35.00;31.60;;;;;16.80;48.73;98842.50;5132452;27;8819;-72
2023/10/15 01:55:53;;;;;;;;;32.40;30.00;;;;;16.84;48.46;98834.38;5080636;27;8927;-73
2023/10/15 01:58:30;;;;;;;;;32.20;30.40;;;;;16.79;48.69;98842.56;5132336;27;8931;-74
2023/10/15 02:01:13;;;;;;;;;28.00;27.40;;;;;16.73;48.87;98842.94;5131968;27;8848;-73
2023/10/15 02:03:43;;;;;;;;;33.60;30.00;;;;;16.63;49.02;98844.44;5150594;27;8835;-73
2023/10/15 02:06:13;;;;;;;;;30.40;29.60;;;;;16.61;49.29;98840.06;5131958;27;8855;-71
2023/10/15 02:08:45;;;;;;;;;29.60;28.20;;;;;16.68;49.32;98847.66;5132827;27;8911;-74
2023/10/15 02:11:22;;;;;;;;;28.60;28.00;;;;;16.72;48.83;98843.88;5131894;27;8979;-72
2023/10/15 02:13:55;;;;;;;;;31.00;29.40;;;;;16.78;48.72;98849.69;5131979;27;8839;-74
2023/10/15 02:16:30;;;;;;;;;25.60;25.60;;;;;16.84;48.68;98842.34;5097188;27;8977;-73
2023/10/15 02:18:59;;;;;;;;;34.60;29.00;;;;;16.91;48.42;98843.66;5131747;27;8863;-73
2023/10/15 02:21:31;;;;;;;;;28.40;28.00;;;;;16.91;48.56;98849.84;5131837;27;8889;-72
2023/10/15 02:24:08;;;;;;;;;30.20;28.20;;;;;16.95;48.39;98840.75;5132049;27;8827;-75
2023/10/15 02:26:39;;;;;;;;;31.00;30.00;;;;;16.98;48.38;98840.59;5138190;27;8921;-74
2023/10/15 02:29:27;;;;;;;;;27.80;25.60;;;;;16.89;48.76;98842.91;5060104;27;8865;-73
2023/10/15 02:32:06;;;;;;;;;27.00;25.80;;;;;16.92;48.55;98851.53;5082768;27;9008;-74
2023/10/15 02:34:40;;;;;;;;;28.80;25.80;;;;;16.92;48.57;98845.38;5076756;27;8904;-73
2023/10/15 02:37:10;;;;;;;;;26.00;25.40;;;;;16.85;48.81;98850.19;5111387;27;9727;-75
2023/10/15 02:39:43;;;;;;;;;28.00;26.80;;;;;16.90;48.55;98841.97;5089029;28;8856;-74
2023/10/15 02:42:15;;;;;;;;;31.60;29.20;;;;;16.90;48.72;98841.97;5106342;28;8833;-73
2023/10/15 02:44:44;;;;;;;;;27.80;26.60;;;;;16.87;48.60;98832.38;5106629;28;8837;-75
2023/10/15 02:47:28;;;;;;;;;26.80;26.00;;;;;16.88;48.66;98833.25;5092601;28;8840;-75
2023/10/15 02:50:00;;;;;;;;;28.00;26.20;;;;;16.87;48.83;98832.38;5088077;28;8852;-75
2023/10/15 02:52:42;;;;;;;;;26.40;26.40;;;;;16.84;48.94;98826.41;5110532;28;8863;-72
2023/10/15 02:55:15;;;;;;;;;26.00;24.80;;;;;16.82;49.01;98828.28;5093348;28;8861;-74
2023/10/15 02:57:46;;;;;;;;;33.40;30.40;;;;;16.82;48.95;98826.50;5110539;28;8853;-75
2023/10/15 03:00:18;;;;;;;;;29.60;27.60;;;;;16.80;48.93;98826.56;5077123;28;9035;-74
2023/10/15 03:02:47;;;;;;;;;27.80;26.80;;;;;16.80;49.06;98823.91;5109452;27;8862;-75
2023/10/15 03:05:16;;;;;;;;;27.20;24.40;;;;;16.84;48.86;98821.09;5113822;27;8945;-76
2023/10/15 03:07:46;;;;;;;;;28.80;24.60;;;;;16.85;48.79;98830.75;5096729;27;9650;-74
2023/10/15 03:10:21;;;;;;;;;29.40;28.20;;;;;16.86;48.82;98830.66;5104523;28;8866;-75
2023/10/15 03:12:52;;;;;;;;;27.20;25.80;;;;;16.88;48.99;98825.28;5093149;28;8843;-76
2023/10/15 03:15:22;;;;;;;;;26.80;26.80;;;;;16.86;48.89;98813.91;5110132;28;8836;-76
2023/10/15 03:17:50;;;;;;;;;28.00;27.00;;;;;16.75;49.33;98825.13;5107767;27;9458;-73
2023/10/15 03:20:27;;;;;;;;;28.40;26.00;;;;;16.72;49.33;98812.91;5132778;27;8943;-74
2023/10/15 03:22:59;;;;;;;;;29.40;28.40;;;;;16.65;49.42;98810.69;5132732;27;8861;-73
2023/10/15 03:25:33;;;;;;;;;29.20;28.40;;;;;16.65;49.32;98822.16;5124934;27;8882;-72
2023/10/15 03:28:07;;;;;;;;;31.00;29.60;;;;;16.67;49.47;98814.97;5134909;27;8839;-72
2023/10/15 03:30:36;;;;;;;;;28.40;25.20;;;;;16.66;49.55;98820.34;5141186;27;8842;-75
2023/10/15 03:33:07;;;;;;;;;25.40;25.00;;;;;16.65;49.40;98813.34;5132935;27;8857;-73
2023/10/15 03:35:39;;;;;;;;;28.20;26.40;;;;;16.66;49.49;98817.69;5131483;27;8837;-72
2023/10/15 03:38:14;;;;;;;;;29.00;26.60;;;;;16.68;49.42;98818.47;5080716;27;8841;-74
2023/10/15 03:40:50;;;;;;;;;27.60;26.80;;;;;16.77;49.42;98818.78;5132620;27;8853;-74
2023/10/15 03:43:21;;;;;;;;;30.40;27.80;;;;;16.74;49.50;98828.75;5101860;27;9002;-72
2023/10/15 03:45:53;;;;;;;;;29.20;27.60;;;;;16.79;49.21;98824.00;5134573;27;8843;-72
2023/10/15 03:48:29;;;;;;;;;27.80;25.00;;;;;16.83;49.13;98808.75;5153216;27;8975;-73
2023/10/15 03:50:58;;;;;;;;;27.00;26.80;;;;;16.87;49.04;98816.47;5153658;27;8839;-76
2023/10/15 03:53:28;;;;;;;;;27.00;25.40;;;;;16.89;49.02;98814.56;5153519;27;8858;-71
2023/10/15 03:55:58;;;;;;;;;24.80;24.80;;;;;16.87;49.07;98813.81;5099780;27;8846;-75
2023/10/15 03:58:28;;;;;;;;;31.00;29.80;;;;;16.89;49.13;98819.00;5116477;27;8839;-72
2023/10/15 04:01:11;;;;;;;;;26.00;24.60;;;;;16.88;48.89;98822.63;5153083;27;8851;-73
2023/10/15 04:03:43;;;;;;;;;23.60;23.60;;;;;16.88;49.02;98815.50;5153165;27;8846;-74
2023/10/15 04:06:13;;;;;;;;;58.25;47.00;;;;;16.87;49.25;98831.50;5075393;28;9069;-74
2023/10/15 04:09:08;;;;;;;;;38.25;33.75;;;;;16.88;48.79;98820.81;5109409;28;8920;-74
2023/10/15 04:11:42;;;;;;;;;34.40;32.20;;;;;16.88;49.00;98822.63;5108982;28;9057;-72
2023/10/15 04:14:17;;;;;;;;;25.40;24.60;;;;;16.90;48.73;98818.06;5108940;28;8831;-78
2023/10/15 04:16:47;;;;;;;;;24.00;24.00;;;;;16.84;49.17;98815.78;5108818;28;8828;-74
2023/10/15 04:19:17;;;;;;;;;27.00;25.40;;;;;16.80;49.36;98813.31;5108730;28;8939;-72
2023/10/15 04:21:47;;;;;;;;;29.40;26.00;;;;;16.81;49.34;98814.16;5108794;28;8879;-73
2023/10/15 04:24:22;;;;;;;;;26.60;22.80;;;;;16.80;49.12;98810.66;5108668;28;8836;-73
2023/10/15 04:26:51;;;;;;;;;27.20;24.60;;;;;16.78;49.27;98809.03;5108810;28;8824;-74
2023/10/15 04:29:22;;;;;;;;;25.20;24.40;;;;;16.74;49.19;98815.47;5108229;28;9794;-75
2023/10/15 04:32:00;;;;;;;;;26.40;24.80;;;;;16.73;49.15;98813.75;5074801;28;8851;-73
2023/10/15 04:34:30;;;;;;;;;27.20;24.40;;;;;16.68;49.36;98821.13;5108495;28;8865;-71
2023/10/15 04:37:01;;;;;;;;;27.40;26.00;;;;;16.68;49.39;98811.38;5116008;27;9721;-72
2023/10/15 04:39:29;;;;;;;;;23.20;23.20;;;;;16.68;49.36;98814.03;5131597;27;8889;-74
2023/10/15 04:42:02;;;;;;;;;22.40;22.40;;;;;16.55;49.82;98808.56;5131604;27;8977;-72
2023/10/15 04:44:33;;;;;;;;;25.20;25.20;;;;;16.57;49.92;98812.00;5131219;27;8835;-73
2023/10/15 04:47:05;;;;;;;;;22.80;21.80;;;;;16.53;49.99;98810.47;5131414;27;8834;-73
2023/10/15 04:49:34;;;;;;;;;28.20;25.80;;;;;16.50;49.91;98815.94;5131151;27;8854;-75
2023/10/15 04:52:13;;;;;;;;;25.40;24.20;;;;;16.50;50.10;98817.75;5131142;27;8894;-72
2023/10/15 04:54:43;;;;;;;;;37.75;33.75;;;;;16.49;50.11;98824.81;5131401;27;9410;-73
2023/10/15 04:57:12;;;;;;;;;41.50;35.00;;;;;16.50;50.09;98834.50;5131759;27;8834;-75
2023/10/15 04:59:42;;;;;;;;;50.50;40.50;;;;;16.47;50.08;98833.81;5131756;27;8842;-74
2023/10/15 05:02:11;;;;;;;;;30.00;30.00;;;;;16.48;50.23;98830.22;5131056;27;8838;-73
2023/10/15 05:04:40;;;;;;;;;29.20;27.00;;;;;16.50;50.03;98833.66;5131167;27;8870;-73
2023/10/15 05:07:09;;;;;;;;;29.40;27.80;;;;;16.47;50.03;98839.97;5129927;27;8847;-73
2023/10/15 05:09:40;;;;;;;;;88.25;80.75;;;;;16.47;50.13;98842.63;5129703;27;8842;-74
2023/10/15 05:12:09;;;;;;;;;62.00;50.50;;;;;16.46;50.06;98850.69;5094328;27;10428;-71
2023/10/15 05:14:37;;;;;;;;;52.50;41.50;;;;;16.45;50.19;98841.84;5130567;27;8908;-74
2023/10/15 05:17:08;;;;;;;;;30.20;29.00;;;;;16.49;50.21;98846.03;5131110;27;8974;-77
2023/10/15 05:19:37;;;;;;;;;27.20;27.20;;;;;16.52;49.95;98848.53;5130388;27;8938;-73
2023/10/15 05:22:06;;;;;;;;;30.80;29.80;;;;;16.31;50.55;98853.22;5094263;27;8919;-73
2023/10/15 05:24:35;;;;;;;;;31.00;29.60;;;;;15.36;53.71;98860.94;5130736;27;8884;-73
2023/10/15 05:27:04;;;;;;;;;32.60;30.00;;;;;15.77;52.40;98866.75;5129183;27;8922;-74
2023/10/15 05:29:32;;;;;;;;;32.60;29.80;;;;;15.70;52.91;98872.44;5128984;27;8897;-75
2023/10/15 05:32:01;;;;;;;;;23.20;22.40;;;;;15.66;53.24;98861.16;5130265;27;8907;-74
2023/10/15 05:34:32;;;;;;;;;33.00;30.40;;;;;15.91;52.55;98854.56;5130250;27;8850;-74
2023/10/15 05:37:02;;;;;;;;;40.25;35.00;;;;;15.29;54.89;98871.00;5129249;27;8834;-71
2023/10/15 05:39:30;;;;;;;;;43.75;36.00;;;;;14.51;57.70;98874.81;5111248;27;8831;-71
2023/10/15 05:41:59;;;;;;;;;37.00;33.00;;;;;14.32;58.65;98881.00;5129253;27;8854;-73
2023/10/15 05:44:28;;;;;;;;;43.75;36.00;;;;;14.04;59.92;98871.72;5129824;27;8869;-73
2023/10/15 05:46:57;;;;;;;;;42.50;36.25;;;;;13.83;60.83;98885.91;5118515;27;8876;-71
2023/10/15 05:49:26;;;;;;;;;48.75;39.50;;;;;14.13;59.93;98877.50;5109640;27;8818;-73
2023/10/15 05:51:56;;;;;;;;;50.75;41.75;;;;;14.61;58.45;98860.25;5109361;28;8906;-73
2023/10/15 05:54:26;;;;;;;;;45.50;39.00;;;;;14.94;57.33;98863.03;5109581;28;8962;-72
2023/10/15 05:56:55;;;;;;;;;47.75;39.75;;;;;15.24;56.73;98865.06;5109382;28;8841;-73
2023/10/15 05:59:24;;;;;;;;;46.00;39.50;;;;;15.48;55.62;98872.69;5107937;28;8980;-75
2023/10/15 06:01:53;;;;;;;;;45.00;38.50;;;;;15.51;56.19;98875.16;5108836;27;8920;-73
2023/10/15 06:04:22;;;;;;;;;38.25;34.75;;;;;15.60;56.32;98877.38;5109193;28;8930;-76
2023/10/15 06:06:51;;;;;;;;;42.25;36.25;;;;;15.68;56.17;98879.63;5109230;28;8847;-73
2023/10/15 06:09:22;;;;;;;;;43.25;38.00;;;;;15.52;56.90;98895.44;5109007;28;8865;-74
2023/10/15 06:11:51;;;;;;;;;45.25;37.50;;;;;14.60;60.44;98909.66;5073695;28;8863;-74
2023/10/15 06:14:19;;;;;;;;;45.25;36.50;;;;;14.76;60.18;98903.66;5108821;28;8981;-75
2023/10/15 06:16:52;;;;;;;;;45.75;35.50;;;;;14.73;60.38;98909.09;5109217;28;8847;-73
2023/10/15 06:19:21;;;;;;;;;46.50;40.00;;;;;14.86;59.98;98911.03;5124685;27;8833;-76
2023/10/15 06:21:50;;;;;;;;;49.50;39.50;;;;;14.63;60.67;98904.19;5108562;28;8979;-75
2023/10/15 06:24:19;;;;;;;;;46.50;38.75;;;;;14.68;60.54;98917.22;5125624;27;8971;-74
2023/10/15 06:26:49;;;;;;;;;50.00;40.75;;;;;14.11;63.15;98919.00;5127608;27;8847;-77
2023/10/15 06:29:18;;;;;;;;;50.00;38.50;;;;;14.56;61.79;98912.50;5133229;27;9098;-73
2023/10/15 06:31:48;;;;;;;;;46.00;39.00;;;;;14.93;60.67;98910.78;5150006;27;8820;-73
2023/10/15 06:34:17;;;;;;;;;46.00;37.75;;;;;15.09;60.16;98919.66;5150372;27;8892;-75
2023/10/15 06:36:47;;;;;;;;;46.75;38.50;;;;;15.48;58.95;98918.56;5113492;27;8858;-75
2023/10/15 06:39:16;;;;;;;;;38.60;35.00;;;;;15.44;58.82;98917.88;5149894;27;8832;-72
2023/10/15 06:41:45;;;;;;;;;33.20;28.20;;;;;15.56;58.71;98926.97;5142675;27;9591;-74
2023/10/15 06:44:17;;;;;;;;;35.80;32.60;;;;;15.60;58.21;98930.34;5093308;27;8887;-74
2023/10/15 06:46:47;;;;;;;;;33.40;30.00;;;;;15.71;57.81;98927.16;5129063;27;8850;-77
2023/10/15 06:49:18;;;;;;;;;46.50;38.00;;;;;15.97;56.86;98924.00;5129093;27;9599;-73
2023/10/15 06:51:47;;;;;;;;;36.20;32.60;;;;;16.10;56.28;98912.75;5131617;27;8915;-73
2023/10/15 06:54:16;;;;;;;;;37.50;33.25;;;;;16.27;55.82;98920.63;5150067;27;8971;-73
2023/10/15 06:56:45;;;;;;;;;33.80;32.00;;;;;16.36;54.87;98919.25;5150221;27;9600;-75
2023/10/15 06:59:17;;;;;;;;;25.40;25.00;;;;;16.27;54.66;98922.44;5149819;27;8938;-74
2023/10/15 07:01:46;;;;;;;;;32.40;30.60;;;;;16.23;54.98;98929.72;5131343;27;8836;-73
2023/10/15 07:04:15;;;;;;;;;39.00;31.00;;;;;16.46;54.23;98915.22;5143306;27;8866;-73
2023/10/15 07:06:44;;;;;;;;;29.40;27.40;;;;;16.75;53.29;98905.59;5129099;27;8833;-73
2023/10/15 07:09:13;;;;;;;;;27.00;25.40;;;;;16.92;52.17;98909.94;5128890;27;8918;-76
2023/10/15 07:11:43;;;;;;;;;26.20;25.40;;;;;17.09;51.45;98916.09;5110723;27;8833;-72
2023/10/15 07:14:12;;;;;;;;;28.60;28.60;;;;;17.13;51.23;98915.81;5128343;27;8837;-74
2023/10/15 07:16:42;;;;;;;;;26.40;25.20;;;;;17.29;50.83;98922.94;5130290;27;8988;-74
2023/10/15 07:19:11;;;;;;;;;21.40;19.40;;;;;17.36;50.03;98934.88;5149292;27;9665;-76
2023/10/15 07:21:41;;;;;;;;;21.20;21.20;;;;;17.60;49.67;98924.59;5149780;27;8820;-74
2023/10/15 07:24:11;;;;;;;;;24.80;23.00;;;;;17.53;49.12;98920.59;5130921;27;8851;-74
2023/10/15 07:26:40;;;;;;;;;16.20;16.20;;;;;17.15;49.65;98919.22;5150101;27;8847;-73
2023/10/15 07:29:09;;;;;;;;;14.40;14.40;;;;;17.35;48.88;98939.34;5149292;27;10142;-77
2023/10/15 07:31:39;;;;;;;;;19.60;18.20;;;;;17.30;48.75;98933.44;5138591;27;8921;-75
2023/10/15 07:34:09;;;;;;;;;19.20;16.00;;;;;17.04;49.63;98940.28;5131094;27;8864;-75
2023/10/15 07:36:38;;;;;;;;;16.60;14.80;;;;;17.37;49.25;98939.28;5132688;27;8914;-74
2023/10/15 07:39:07;;;;;;;;;13.00;11.00;;;;;17.63;48.28;98931.53;5079489;27;9016;-73
2023/10/15 07:41:37;;;;;;;;;13.20;12.80;;;;;17.67;47.73;98946.38;5113825;27;8977;-76
2023/10/15 07:44:07;;;;;;;;;10.40;9.80;;;;;17.70;46.75;98944.41;5079016;27;8854;-75
2023/10/15 07:46:36;;;;;;;;;9.80;8.20;;;;;17.73;46.47;98949.50;5132704;27;8826;-75
2023/10/15 07:49:05;;;;;;;;;7.60;7.40;;;;;17.80;46.52;98952.66;5132038;27;8888;-73
2023/10/15 07:51:35;;;;;;;;;13.00;12.60;;;;;17.74;46.06;98950.34;5132367;27;8981;-74
2023/10/15 07:54:04;;;;;;;;;8.40;6.40;;;;;17.54;46.34;98957.72;5131962;27;9084;-73
2023/10/15 07:56:34;;;;;;;;;6.00;6.00;;;;;17.72;45.89;98949.59;5113843;27;8833;-79
2023/10/15 07:59:07;;;;;;;;;7.60;7.60;;;;;17.80;45.92;98960.63;5132350;27;8858;-76
2023/10/15 08:01:37;;;;;;;;;8.00;8.00;;;;;17.67;45.85;98957.00;5113666;27;8846;-73
2023/10/15 08:04:09;;;;;;;;;4.80;4.80;;;;;17.50;45.87;98958.84;5132179;27;8888;-74
2023/10/15 08:06:40;;;;;;;;;7.20;7.20;;;;;17.05;46.32;98965.88;5113597;27;8851;-73
2023/10/15 08:09:10;;;;;;;;;9.60;6.80;;;;;16.90;46.79;98964.06;5132179;27;8837;-72
2023/10/15 08:11:41;;;;;;;;;8.00;6.00;;;;;16.75;46.84;98961.34;5113758;27;8861;-74
2023/10/15 08:14:09;;;;;;;;;6.60;5.00;;;;;16.57;47.31;98951.75;5132099;27;8876;-75
2023/10/15 08:16:39;;;;;;;;;5.60;4.40;;;;;16.49;47.75;98959.28;5131967;27;9571;-74
2023/10/15 08:19:07;;;;;;;;;5.80;4.60;;;;;16.66;47.33;98961.84;5131620;27;8850;-75
2023/10/15 08:21:36;;;;;;;;;1.60;1.60;;;;;16.52;47.44;98972.38;5131570;27;8863;-74
2023/10/15 08:24:07;;;;;;;;;6.80;6.00;;;;;16.41;47.77;98976.41;5131734;27;8865;-74
2023/10/15 08:26:37;;;;;;;;;5.60;5.20;;;;;16.39;47.83;98990.72;5113305;27;8837;-74
2023/10/15 08:29:05;;;;;;;;;6.00;5.80;;;;;16.64;47.13;99000.88;5131498;27;8865;-74
2023/10/15 08:31:34;;;;;;;;;4.80;4.80;;;;;16.65;46.76;98993.78;5131275;27;8853;-74
2023/10/15 08:34:03;;;;;;;;;8.00;7.80;;;;;16.47;47.46;98993.84;5131605;27;8976;-74
2023/10/15 08:36:32;;;;;;;;;7.00;7.00;;;;;15.66;49.60;98990.97;5101352;27;8917;-72
2023/10/15 08:39:06;;;;;;;;;6.00;5.80;;;;;15.55;50.43;98996.81;5079161;27;8845;-76
2023/10/15 08:41:39;;;;;;;;;6.60;6.60;;;;;15.40;50.62;98990.47;5131094;27;8833;-73
2023/10/15 08:44:09;;;;;;;;;8.20;7.80;;;;;15.63;50.29;98994.66;5112332;27;8853;-75
2023/10/15 08:46:38;;;;;;;;;7.40;7.00;;;;;15.65;49.80;98997.22;5112880;27;9596;-74
2023/10/15 08:49:08;;;;;;;;;4.40;4.40;;;;;15.89;48.37;98991.59;5131275;27;8849;-71
2023/10/15 08:51:38;;;;;;;;;4.20;4.20;;;;;16.04;47.87;98993.47;5130977;27;8841;-73
2023/10/15 08:54:11;;;;;;;;;7.20;6.60;;;;;16.14;46.98;98997.34;5130944;27;8871;-76
2023/10/15 08:56:43;;;;;;;;;5.20;5.20;;;;;16.30;46.52;99004.47;5130716;27;8904;-75
2023/10/15 08:59:13;;;;;;;;;4.40;4.20;;;;;16.01;46.92;99013.03;5131002;27;9019;-73
2023/10/15 09:01:44;;;;;;;;;4.80;4.80;;;;;15.41;48.75;99009.88;5130940;27;8924;-73
2023/10/15 09:04:12;;;;;;;;;3.40;3.40;;;;;14.60;52.03;99022.50;5130762;27;8850;-73
2023/10/15 09:06:42;;;;;;;;;3.60;3.60;;;;;14.62;52.24;99033.88;5130669;27;8834;-71
2023/10/15 09:09:11;;;;;;;;;6.00;5.20;;;;;14.41;52.61;99052.47;5117536;27;8916;-73
2023/10/15 09:11:42;;;;;;;;;3.00;3.00;;;;;13.86;54.07;99052.19;5107541;28;8831;-73
2023/10/15 09:14:13;;;;;;;;;3.80;3.80;;;;;13.64;55.30;99050.44;5108261;28;8871;-75
2023/10/15 09:16:47;;;;;;;;;5.00;4.00;;;;;13.56;54.96;99051.66;5107491;28;8847;-73
2023/10/15 09:19:16;;;;;;;;;1.80;1.80;;;;;13.50;54.34;99052.78;5107467;28;8855;-73
2023/10/15 09:21:45;;;;;;;;;4.60;4.60;;;;;13.46;54.69;99062.59;5107400;28;8863;-74
2023/10/15 09:24:15;;;;;;;;;4.00;4.00;;;;;13.11;55.71;99072.81;5107161;28;8884;-75
2023/10/15 09:26:46;;;;;;;;;5.00;3.80;;;;;13.04;56.34;99071.31;5092319;28;8858;-74
2023/10/15 09:29:21;;;;;;;;;3.00;3.00;;;;;12.87;56.50;99077.22;5069451;28;8874;-73
2023/10/15 09:31:56;;;;;;;;;11.60;10.60;;;;;13.10;56.25;99086.91;5069670;28;8822;-72
2023/10/15 09:34:26;;;;;;;;;9.00;6.60;;;;;13.01;56.93;99086.41;5070074;28;8952;-74
2023/10/15 09:36:55;;;;;;;;;4.60;4.60;;;;;12.81;58.41;99079.22;5069516;28;8850;-71
2023/10/15 09:39:26;;;;;;;;;6.00;5.80;;;;;12.87;58.54;99074.59;5086612;28;8900;-74
2023/10/15 09:41:57;;;;;;;;;4.80;4.80;;;;;12.67;59.56;99090.28;5091328;27;8931;-73
2023/10/15 09:44:26;;;;;;;;;6.40;6.00;;;;;12.47;60.22;99083.97;5129702;27;8876;-77
2023/10/15 09:46:56;;;;;;;;;4.80;4.00;;;;;12.67;59.53;99079.72;5077033;27;8829;-74
2023/10/15 09:49:26;;;;;;;;;2.00;2.00;;;;;12.62;59.16;99092.25;5128753;27;8845;-76
2023/10/15 09:51:55;;;;;;;;;3.00;3.00;;;;;12.59;59.87;99085.28;5142169;27;8848;-74
2023/10/15 09:54:24;;;;;;;;;5.40;4.00;;;;;12.56;60.36;99092.44;5150921;27;8865;-74
2023/10/15 09:56:55;;;;;;;;;4.00;4.00;;;;;12.56;60.61;99084.53;5131223;27;8847;-73
2023/10/15 09:59:25;;;;;;;;;3.00;3.00;;;;;12.18;61.59;99086.75;5150601;27;8851;-75
2023/10/15 10:01:56;;;;;;;;;5.40;4.00;;;;;12.18;61.96;99084.97;5150413;27;8843;-75
2023/10/15 10:05:06;;;;;;;;;3.00;3.00;;;;;11.78;62.68;99088.94;5143343;27;8858;-71
2023/10/15 10:07:48;;;;;;;;;3.60;3.20;;;;;11.74;62.51;99084.69;5065611;28;8875;-74
2023/10/15 10:10:39;;;;;;;;;3.00;2.80;;;;;11.88;62.08;99092.16;5049236;28;8945;-73
2023/10/15 10:13:47;;;;;;;;;4.00;4.00;;;;;12.07;61.43;99084.50;5065843;28;8864;-73
2023/10/15 10:16:24;;;;;;;;;5.00;4.00;;;;;11.99;61.41;99084.75;5015768;28;9074;-71
2023/10/15 10:18:55;;;;;;;;;19.40;19.20;;;;;12.37;60.77;99071.16;5062273;28;8898;-74
2023/10/15 10:21:29;;;;;;;;;5.20;5.20;;;;;12.22;61.43;99075.19;5066092;28;8855;-72
2023/10/15 10:24:02;;;;;;;;;5.20;5.20;;;;;11.88;62.26;99074.59;5049109;28;8985;-73
2023/10/15 10:26:33;;;;;;;;;9.00;8.80;;;;;12.03;61.84;99078.50;5049200;28;8886;-72
2023/10/15 10:29:02;;;;;;;;;9.00;9.00;;;;;11.89;62.72;99072.81;5048837;28;8918;-71
2023/10/15 10:31:36;;;;;;;;;10.40;10.40;;;;;11.94;63.38;99065.63;5032566;28;8848;-75
2023/10/15 10:34:05;;;;;;;;;18.40;16.40;;;;;12.08;63.92;99068.63;5065417;28;8924;-73
2023/10/15 10:36:39;;;;;;;;;15.20;15.20;;;;;11.81;64.74;99072.19;5065349;28;8913;-72
2023/10/15 10:39:14;;;;;;;;;9.40;8.00;;;;;11.38;64.90;99075.31;5065160;28;8835;-71
2023/10/15 10:41:45;;;;;;;;;8.80;7.60;;;;;11.10;64.74;99071.81;5065182;28;8843;-72
2023/10/15 10:44:38;;;;;;;;;7.00;7.00;;;;;10.96;65.10;99070.47;5043808;27;8845;-73
2023/10/15 10:47:21;;;;;;;;;5.80;5.40;;;;;11.10;64.52;99062.16;5128704;27;9639;-76
2023/10/15 10:49:58;;;;;;;;;6.40;6.40;;;;;11.32;64.70;99066.75;5110704;27;8857;-73
2023/10/15 10:52:34;;;;;;;;;7.00;5.60;;;;;11.39;62.96;99063.03;5128588;27;9707;-73
2023/10/15 10:55:31;;;;;;;;;2.00;2.00;;;;;11.05;61.73;99050.06;5128937;27;9595;-74
2023/10/15 10:58:04;;;;;;;;;5.20;4.40;;;;;11.32;60.79;99043.94;5129799;27;8839;-72
2023/10/15 11:00:34;;;;;;;;;4.80;4.80;;;;;11.22;60.88;99053.03;5129648;27;9595;-73
2023/10/15 11:03:06;;;;;;;;;8.40;7.40;;;;;11.39;59.88;99057.78;5149694;27;9522;-72
2023/10/15 11:05:36;;;;;;;;;5.00;5.00;;;;;11.50;59.50;99060.03;5096070;27;8944;-73
2023/10/15 11:08:17;;;;;;;;;6.00;6.00;;;;;11.59;58.57;99059.72;5152574;27;8858;-73
2023/10/15 11:10:47;;;;;;;;;10.40;9.40;;;;;11.54;59.18;99038.84;5153677;27;8865;-72
2023/10/15 11:13:17;;;;;;;;;7.40;7.40;;;;;11.56;58.40;99047.53;5147344;27;8826;-72
2023/10/15 11:15:50;;;;;;;;;6.00;6.00;;;;;11.65;58.43;99037.59;5145829;27;8883;-75
2023/10/15 11:18:23;;;;;;;;;7.00;6.80;;;;;11.53;56.91;99039.75;5133252;27;8930;-73
2023/10/15 11:20:53;;;;;;;;;4.80;4.00;;;;;11.69;57.03;99034.84;5079892;27;8875;-73
2023/10/15 11:23:23;;;;;;;;;5.00;5.00;;;;;11.69;56.83;99032.22;5132871;27;9649;-71
2023/10/15 11:25:55;;;;;;;;;6.00;6.00;;;;;11.95;56.44;99044.50;5132583;27;8854;-74
2023/10/15 11:28:25;;;;;;;;;7.40;7.40;;;;;12.06;56.04;99045.91;5151681;27;8847;-73
2023/10/15 11:30:55;;;;;;;;;6.80;6.80;;;;;12.08;54.93;99041.44;5153606;27;9651;-73
2023/10/15 11:33:27;;;;;;;;;11.60;10.00;;;;;12.02;54.53;99053.06;5153344;27;8961;-76
2023/10/15 11:35:59;;;;;;;;;10.40;8.80;;;;;11.84;52.72;99051.03;5142639;27;9575;-75
2023/10/15 11:38:33;;;;;;;;;7.00;7.00;;;;;11.89;50.96;99052.59;5132254;27;8864;-72
2023/10/15 11:41:03;;;;;;;;;6.00;6.00;;;;;12.03;50.18;99049.53;5132419;27;9586;-73
2023/10/15 11:43:33;;;;;;;;;4.40;4.40;;;;;12.41;49.10;99047.28;5113623;27;9386;-72
2023/10/15 11:46:07;;;;;;;;;5.60;5.60;;;;;12.20;49.03;99042.78;5079110;27;8846;-72
2023/10/15 11:48:38;;;;;;;;;4.80;4.80;;;;;12.23;48.63;99043.53;5096059;27;8826;-74
2023/10/15 11:51:08;;;;;;;;;6.40;4.80;;;;;12.31;48.26;99048.50;5132086;27;8826;-73